Orlando Sanford International

Airport
ICAO code: 
KSFB
Summary
ICAO Region: 
NAM
Territory: 
Location: 
Orlando, Florida,
Coordinates: 
Aerial View: 
28° 46' 40" N, 81° 14' 15" W
Metar
Observation
KSFB 021453Z 33009KT 10SM CLR 19/07 A3019 RMK AO2 SLP223 T01890072 51020 $
Station
Orlando / Sanford Airport
Date/Time
2021-12-02 14:53:00
Wind direction
330°
Wind speed
09 kts
Lowest cloud amount
n/a
Temperature
18.9°C
Dew point
7.2°C
Humidity
46%
Weather condition
n/a

Description

International airport 25 nm north east of Orlando, Florida, USA. Sanford is Orlando's secondary airport (primary is Orlando International Airport) but is, because of the amount of flight training, one of the busiest airports in the world in terms of take-offs and landings. Served by many British charter operators.

Climatology

Humid “subtropical” climate (Köppen climate classification Cfa) - characterized by hot, humid summers and cool winters. From October to March the temperatures are more moderate and rain less frequent. Most summer rainfall occurs during thunderstorms and occasional tropical storms (hurricanes).

Runways

Designator Length Width Surface Rops
09R/27L 1067 23 ASP Yes/Yes
09C/27C 1091 23 ASP Yes/Yes
18/36 1830 46 PEM Yes/Yes
09L/27R 2926 46 ASP Yes/Yes
Airport map: 
Aerial View: 

SKYbrary Partners:

Safety knowledge contributed by: